Terminal Aerodrome Forecast
Issued by NWS

Home | Current Version | Previous Version | Text Only | Print | Product List | Glossary On
Versions: 1 2 3 4 5 6 7 8 9 10 11 12 13 14 15 16
000
FTUS44 KLZK 231123
TAFHRO
TAF
KHRO 231123Z 2312/2412 29005KT P6SM VCSH SCT030 BKN060
      TEMPO 2312/2315 BKN030
     FM231500 30008KT P6SM VCSH SCT040 BKN080
     FM240100 30005KT P6SM SCT060 BKN100
     FM240900 30006KT P6SM BKN020 OVC050=

USA.gov is the U.S. government's official web portal to all federal, state and local government web resources and services.